sensor_id;sensor_type;location;lat;lon;timestamp;P1;durP1;ratioP1;P2;durP2;ratioP2
34278;SDS011;20538;51.528;9.942;2023-05-07T00:00:41;31.63;;;20.33;;
34278;SDS011;20538;51.528;9.942;2023-05-07T00:03:07;32.20;;;21.45;;
34278;SDS011;20538;51.528;9.942;2023-05-07T00:05:33;37.83;;;21.67;;
34278;SDS011;20538;51.528;9.942;2023-05-07T00:07:58;33.92;;;20.38;;
34278;SDS011;20538;51.528;9.942;2023-05-07T00:10:24;34.17;;;21.73;;
34278;SDS011;20538;51.528;9.942;2023-05-07T00:12:50;42.22;;;23.38;;
34278;SDS011;20538;51.528;9.942;2023-05-07T00:15:16;37.03;;;22.70;;
34278;SDS011;20538;51.528;9.942;2023-05-07T00:17:42;39.60;;;22.60;;
34278;SDS011;20538;51.528;9.942;2023-05-07T00:20:07;38.17;;;22.77;;
34278;SDS011;20538;51.528;9.942;2023-05-07T00:22:33;38.58;;;22.85;;
34278;SDS011;20538;51.528;9.942;2023-05-07T00:24:59;39.35;;;23.23;;
34278;SDS011;20538;51.528;9.942;2023-05-07T00:27:25;40.63;;;24.05;;
34278;SDS011;20538;51.528;9.942;2023-05-07T00:29:53;40.10;;;24.27;;
34278;SDS011;20538;51.528;9.942;2023-05-07T00:32:19;44.50;;;24.15;;
34278;SDS011;20538;51.528;9.942;2023-05-07T00:34:45;46.15;;;25.48;;
34278;SDS011;20538;51.528;9.942;2023-05-07T00:37:10;52.70;;;25.50;;
34278;SDS011;20538;51.528;9.942;2023-05-07T00:39:37;45.83;;;24.30;;
34278;SDS011;20538;51.528;9.942;2023-05-07T00:42:02;46.67;;;25.35;;
34278;SDS011;20538;51.528;9.942;2023-05-07T00:44:28;45.50;;;24.52;;
34278;SDS011;20538;51.528;9.942;2023-05-07T00:46:55;50.10;;;25.25;;
34278;SDS011;20538;51.528;9.942;2023-05-07T00:49:22;41.00;;;23.83;;
34278;SDS011;20538;51.528;9.942;2023-05-07T00:51:54;42.97;;;24.52;;
34278;SDS011;20538;51.528;9.942;2023-05-07T00:54:20;42.45;;;23.58;;
34278;SDS011;20538;51.528;9.942;2023-05-07T00:56:46;43.90;;;24.77;;
34278;SDS011;20538;51.528;9.942;2023-05-07T00:59:12;39.50;;;22.73;;
34278;SDS011;20538;51.528;9.942;2023-05-07T01:01:38;39.90;;;24.35;;
34278;SDS011;20538;51.528;9.942;2023-05-07T01:04:04;40.85;;;22.90;;
34278;SDS011;20538;51.528;9.942;2023-05-07T01:06:29;40.60;;;23.45;;
34278;SDS011;20538;51.528;9.942;2023-05-07T01:08:57;40.88;;;22.85;;
34278;SDS011;20538;51.528;9.942;2023-05-07T01:11:23;43.28;;;23.92;;
34278;SDS011;20538;51.528;9.942;2023-05-07T01:13:50;41.47;;;23.85;;
34278;SDS011;20538;51.528;9.942;2023-05-07T01:16:16;41.80;;;22.83;;
34278;SDS011;20538;51.528;9.942;2023-05-07T01:18:42;40.80;;;22.80;;
34278;SDS011;20538;51.528;9.942;2023-05-07T01:21:07;40.67;;;24.10;;
34278;SDS011;20538;51.528;9.942;2023-05-07T01:23:36;38.70;;;23.15;;
34278;SDS011;20538;51.528;9.942;2023-05-07T01:26:02;40.75;;;23.55;;
34278;SDS011;20538;51.528;9.942;2023-05-07T01:28:27;36.47;;;22.73;;
34278;SDS011;20538;51.528;9.942;2023-05-07T01:30:55;37.65;;;22.67;;
34278;SDS011;20538;51.528;9.942;2023-05-07T01:33:26;44.33;;;23.45;;
34278;SDS011;20538;51.528;9.942;2023-05-07T01:35:56;41.33;;;23.10;;
34278;SDS011;20538;51.528;9.942;2023-05-07T01:38:25;40.10;;;22.42;;
34278;SDS011;20538;51.528;9.942;2023-05-07T01:40:52;39.13;;;22.67;;
34278;SDS011;20538;51.528;9.942;2023-05-07T01:43:18;39.88;;;23.42;;
34278;SDS011;20538;51.528;9.942;2023-05-07T01:45:44;43.22;;;23.73;;
34278;SDS011;20538;51.528;9.942;2023-05-07T01:48:11;38.63;;;22.13;;
34278;SDS011;20538;51.528;9.942;2023-05-07T01:50:37;44.65;;;24.13;;
34278;SDS011;20538;51.528;9.942;2023-05-07T01:53:04;45.55;;;24.10;;
34278;SDS011;20538;51.528;9.942;2023-05-07T01:55:30;45.90;;;23.48;;
34278;SDS011;20538;51.528;9.942;2023-05-07T01:57:55;39.72;;;23.92;;
34278;SDS011;20538;51.528;9.942;2023-05-07T02:00:21;40.15;;;22.27;;
34278;SDS011;20538;51.528;9.942;2023-05-07T02:02:47;42.40;;;24.10;;
34278;SDS011;20538;51.528;9.942;2023-05-07T02:05:12;41.28;;;23.30;;
34278;SDS011;20538;51.528;9.942;2023-05-07T02:07:38;40.17;;;22.95;;
34278;SDS011;20538;51.528;9.942;2023-05-07T02:10:04;37.92;;;22.70;;
34278;SDS011;20538;51.528;9.942;2023-05-07T02:12:30;40.28;;;22.67;;
34278;SDS011;20538;51.528;9.942;2023-05-07T02:14:55;41.08;;;21.85;;
34278;SDS011;20538;51.528;9.942;2023-05-07T02:17:21;36.83;;;21.80;;
34278;SDS011;20538;51.528;9.942;2023-05-07T02:19:46;36.90;;;21.55;;
34278;SDS011;20538;51.528;9.942;2023-05-07T02:22:12;36.28;;;21.90;;
34278;SDS011;20538;51.528;9.942;2023-05-07T02:24:38;40.63;;;21.90;;
34278;SDS011;20538;51.528;9.942;2023-05-07T02:27:03;39.20;;;21.33;;
34278;SDS011;20538;51.528;9.942;2023-05-07T02:29:29;37.08;;;20.95;;
34278;SDS011;20538;51.528;9.942;2023-05-07T02:31:55;37.33;;;20.17;;
34278;SDS011;20538;51.528;9.942;2023-05-07T02:34:21;31.80;;;19.38;;
34278;SDS011;20538;51.528;9.942;2023-05-07T02:36:46;35.63;;;19.50;;
34278;SDS011;20538;51.528;9.942;2023-05-07T02:39:12;30.55;;;19.08;;
34278;SDS011;20538;51.528;9.942;2023-05-07T02:41:38;34.95;;;19.75;;
34278;SDS011;20538;51.528;9.942;2023-05-07T02:44:04;34.70;;;20.77;;
34278;SDS011;20538;51.528;9.942;2023-05-07T02:46:30;34.15;;;20.05;;
34278;SDS011;20538;51.528;9.942;2023-05-07T02:48:56;35.58;;;19.48;;
34278;SDS011;20538;51.528;9.942;2023-05-07T02:51:21;34.05;;;19.52;;
34278;SDS011;20538;51.528;9.942;2023-05-07T02:53:48;34.15;;;19.42;;
34278;SDS011;20538;51.528;9.942;2023-05-07T02:56:13;35.40;;;20.33;;
34278;SDS011;20538;51.528;9.942;2023-05-07T02:58:39;36.90;;;20.30;;
34278;SDS011;20538;51.528;9.942;2023-05-07T03:01:05;32.08;;;18.08;;
34278;SDS011;20538;51.528;9.942;2023-05-07T03:03:31;34.38;;;19.92;;
34278;SDS011;20538;51.528;9.942;2023-05-07T03:05:57;34.10;;;19.33;;
34278;SDS011;20538;51.528;9.942;2023-05-07T03:08:22;35.03;;;19.63;;
34278;SDS011;20538;51.528;9.942;2023-05-07T03:10:49;32.92;;;19.38;;
34278;SDS011;20538;51.528;9.942;2023-05-07T03:13:14;34.63;;;19.95;;
34278;SDS011;20538;51.528;9.942;2023-05-07T03:15:40;32.78;;;18.55;;
34278;SDS011;20538;51.528;9.942;2023-05-07T03:18:06;33.15;;;19.67;;
34278;SDS011;20538;51.528;9.942;2023-05-07T03:20:31;34.67;;;19.67;;
34278;SDS011;20538;51.528;9.942;2023-05-07T03:22:57;33.00;;;19.48;;
34278;SDS011;20538;51.528;9.942;2023-05-07T03:25:23;30.55;;;18.70;;
34278;SDS011;20538;51.528;9.942;2023-05-07T03:27:48;32.95;;;19.30;;
34278;SDS011;20538;51.528;9.942;2023-05-07T03:30:14;32.38;;;18.90;;
34278;SDS011;20538;51.528;9.942;2023-05-07T03:32:40;32.83;;;18.85;;
34278;SDS011;20538;51.528;9.942;2023-05-07T03:35:05;30.85;;;19.35;;
34278;SDS011;20538;51.528;9.942;2023-05-07T03:37:32;30.52;;;18.67;;
34278;SDS011;20538;51.528;9.942;2023-05-07T03:39:57;29.25;;;18.55;;
34278;SDS011;20538;51.528;9.942;2023-05-07T03:42:23;32.45;;;18.27;;
34278;SDS011;20538;51.528;9.942;2023-05-07T03:44:49;31.65;;;18.75;;
34278;SDS011;20538;51.528;9.942;2023-05-07T03:47:15;34.55;;;19.17;;
34278;SDS011;20538;51.528;9.942;2023-05-07T03:49:40;33.30;;;20.08;;
34278;SDS011;20538;51.528;9.942;2023-05-07T03:52:06;33.83;;;20.63;;
34278;SDS011;20538;51.528;9.942;2023-05-07T03:54:32;34.22;;;19.20;;
34278;SDS011;20538;51.528;9.942;2023-05-07T03:56:57;32.95;;;19.70;;
34278;SDS011;20538;51.528;9.942;2023-05-07T03:59:23;35.47;;;20.25;;
34278;SDS011;20538;51.528;9.942;2023-05-07T04:01:49;33.30;;;19.15;;
34278;SDS011;20538;51.528;9.942;2023-05-07T04:04:15;34.53;;;19.00;;
34278;SDS011;20538;51.528;9.942;2023-05-07T04:06:40;35.15;;;19.33;;
34278;SDS011;20538;51.528;9.942;2023-05-07T04:09:06;30.60;;;19.13;;
34278;SDS011;20538;51.528;9.942;2023-05-07T04:11:32;29.50;;;18.60;;
34278;SDS011;20538;51.528;9.942;2023-05-07T04:13:58;29.48;;;17.85;;
34278;SDS011;20538;51.528;9.942;2023-05-07T04:16:24;30.85;;;17.25;;
34278;SDS011;20538;51.528;9.942;2023-05-07T04:18:49;25.25;;;15.80;;
34278;SDS011;20538;51.528;9.942;2023-05-07T04:21:15;29.77;;;17.83;;
34278;SDS011;20538;51.528;9.942;2023-05-07T04:23:42;26.38;;;15.85;;
34278;SDS011;20538;51.528;9.942;2023-05-07T04:26:08;27.92;;;15.82;;
34278;SDS011;20538;51.528;9.942;2023-05-07T04:28:34;29.00;;;16.10;;
34278;SDS011;20538;51.528;9.942;2023-05-07T04:31:00;26.77;;;15.45;;
34278;SDS011;20538;51.528;9.942;2023-05-07T04:33:25;27.10;;;15.95;;
34278;SDS011;20538;51.528;9.942;2023-05-07T04:35:51;31.40;;;15.85;;
34278;SDS011;20538;51.528;9.942;2023-05-07T04:38:17;25.58;;;15.60;;
34278;SDS011;20538;51.528;9.942;2023-05-07T04:40:43;27.70;;;16.17;;
34278;SDS011;20538;51.528;9.942;2023-05-07T04:43:09;26.00;;;15.98;;
34278;SDS011;20538;51.528;9.942;2023-05-07T04:45:35;30.05;;;16.92;;
34278;SDS011;20538;51.528;9.942;2023-05-07T04:48:01;26.90;;;14.73;;
34278;SDS011;20538;51.528;9.942;2023-05-07T04:50:27;28.90;;;15.32;;
34278;SDS011;20538;51.528;9.942;2023-05-07T04:52:53;25.38;;;15.38;;
34278;SDS011;20538;51.528;9.942;2023-05-07T04:55:18;26.75;;;15.38;;
34278;SDS011;20538;51.528;9.942;2023-05-07T04:57:44;25.85;;;14.45;;
34278;SDS011;20538;51.528;9.942;2023-05-07T05:00:10;27.00;;;15.73;;
34278;SDS011;20538;51.528;9.942;2023-05-07T05:02:39;29.85;;;15.68;;
34278;SDS011;20538;51.528;9.942;2023-05-07T05:05:05;22.02;;;13.43;;
34278;SDS011;20538;51.528;9.942;2023-05-07T05:07:32;26.45;;;15.30;;
34278;SDS011;20538;51.528;9.942;2023-05-07T05:09:57;25.85;;;14.82;;
34278;SDS011;20538;51.528;9.942;2023-05-07T05:12:26;27.40;;;15.57;;
34278;SDS011;20538;51.528;9.942;2023-05-07T05:14:51;27.95;;;14.57;;
34278;SDS011;20538;51.528;9.942;2023-05-07T05:17:17;27.10;;;14.95;;
34278;SDS011;20538;51.528;9.942;2023-05-07T05:19:43;25.85;;;14.45;;
34278;SDS011;20538;51.528;9.942;2023-05-07T05:22:08;28.10;;;14.65;;
34278;SDS011;20538;51.528;9.942;2023-05-07T05:24:34;30.20;;;15.35;;
34278;SDS011;20538;51.528;9.942;2023-05-07T05:27:00;26.85;;;15.45;;
34278;SDS011;20538;51.528;9.942;2023-05-07T05:29:26;28.95;;;15.30;;
34278;SDS011;20538;51.528;9.942;2023-05-07T05:31:51;26.80;;;14.40;;
34278;SDS011;20538;51.528;9.942;2023-05-07T05:34:17;30.60;;;15.30;;
34278;SDS011;20538;51.528;9.942;2023-05-07T05:36:44;29.55;;;15.63;;
34278;SDS011;20538;51.528;9.942;2023-05-07T05:39:10;31.23;;;16.13;;
34278;SDS011;20538;51.528;9.942;2023-05-07T05:41:36;29.35;;;15.45;;
34278;SDS011;20538;51.528;9.942;2023-05-07T05:44:01;33.03;;;16.75;;
34278;SDS011;20538;51.528;9.942;2023-05-07T05:46:27;33.88;;;16.42;;
34278;SDS011;20538;51.528;9.942;2023-05-07T05:48:53;31.40;;;16.60;;
34278;SDS011;20538;51.528;9.942;2023-05-07T05:51:18;32.22;;;16.70;;
34278;SDS011;20538;51.528;9.942;2023-05-07T05:53:45;27.67;;;15.80;;
34278;SDS011;20538;51.528;9.942;2023-05-07T05:56:11;31.67;;;16.73;;
34278;SDS011;20538;51.528;9.942;2023-05-07T05:58:39;26.40;;;14.88;;
34278;SDS011;20538;51.528;9.942;2023-05-07T06:01:05;25.60;;;14.45;;
34278;SDS011;20538;51.528;9.942;2023-05-07T06:03:31;26.25;;;14.48;;
34278;SDS011;20538;51.528;9.942;2023-05-07T06:05:59;28.58;;;15.55;;
34278;SDS011;20538;51.528;9.942;2023-05-07T06:08:25;27.73;;;14.98;;
34278;SDS011;20538;51.528;9.942;2023-05-07T06:10:54;31.08;;;16.08;;
34278;SDS011;20538;51.528;9.942;2023-05-07T06:13:20;28.98;;;15.27;;
34278;SDS011;20538;51.528;9.942;2023-05-07T06:15:45;25.92;;;13.02;;
34278;SDS011;20538;51.528;9.942;2023-05-07T06:18:11;25.65;;;14.57;;
34278;SDS011;20538;51.528;9.942;2023-05-07T06:20:37;28.83;;;14.90;;
34278;SDS011;20538;51.528;9.942;2023-05-07T06:23:02;25.35;;;14.52;;
34278;SDS011;20538;51.528;9.942;2023-05-07T06:25:28;24.25;;;13.68;;
34278;SDS011;20538;51.528;9.942;2023-05-07T06:27:53;25.40;;;13.75;;
34278;SDS011;20538;51.528;9.942;2023-05-07T06:30:19;23.13;;;13.80;;
34278;SDS011;20538;51.528;9.942;2023-05-07T06:32:45;20.85;;;12.82;;
34278;SDS011;20538;51.528;9.942;2023-05-07T06:35:10;24.85;;;13.88;;
34278;SDS011;20538;51.528;9.942;2023-05-07T06:37:36;25.77;;;14.35;;
34278;SDS011;20538;51.528;9.942;2023-05-07T06:40:04;27.05;;;13.52;;
34278;SDS011;20538;51.528;9.942;2023-05-07T06:42:31;20.80;;;12.30;;
34278;SDS011;20538;51.528;9.942;2023-05-07T06:44:57;19.70;;;12.05;;
34278;SDS011;20538;51.528;9.942;2023-05-07T06:47:23;22.73;;;13.25;;
34278;SDS011;20538;51.528;9.942;2023-05-07T06:49:48;21.05;;;12.20;;
34278;SDS011;20538;51.528;9.942;2023-05-07T06:52:14;22.40;;;11.90;;
34278;SDS011;20538;51.528;9.942;2023-05-07T06:54:40;19.75;;;11.95;;
34278;SDS011;20538;51.528;9.942;2023-05-07T06:57:05;19.27;;;11.00;;
34278;SDS011;20538;51.528;9.942;2023-05-07T06:59:32;19.52;;;11.63;;
34278;SDS011;20538;51.528;9.942;2023-05-07T07:01:57;18.20;;;10.68;;
34278;SDS011;20538;51.528;9.942;2023-05-07T07:04:23;19.00;;;11.38;;
34278;SDS011;20538;51.528;9.942;2023-05-07T07:06:49;20.08;;;11.20;;
34278;SDS011;20538;51.528;9.942;2023-05-07T07:09:16;17.83;;;10.48;;
34278;SDS011;20538;51.528;9.942;2023-05-07T07:11:42;15.23;;;10.25;;
34278;SDS011;20538;51.528;9.942;2023-05-07T07:14:07;16.00;;;10.25;;
34278;SDS011;20538;51.528;9.942;2023-05-07T07:16:33;16.10;;;9.50;;
34278;SDS011;20538;51.528;9.942;2023-05-07T07:18:59;16.52;;;10.07;;
34278;SDS011;20538;51.528;9.942;2023-05-07T07:21:24;16.15;;;9.77;;
34278;SDS011;20538;51.528;9.942;2023-05-07T07:23:50;16.35;;;9.70;;
34278;SDS011;20538;51.528;9.942;2023-05-07T07:26:16;15.52;;;9.07;;
34278;SDS011;20538;51.528;9.942;2023-05-07T07:28:43;15.45;;;8.93;;
34278;SDS011;20538;51.528;9.942;2023-05-07T07:31:09;14.13;;;8.60;;
34278;SDS011;20538;51.528;9.942;2023-05-07T07:33:35;14.68;;;8.32;;
34278;SDS011;20538;51.528;9.942;2023-05-07T07:36:00;15.48;;;8.15;;
34278;SDS011;20538;51.528;9.942;2023-05-07T07:38:26;12.85;;;7.47;;
34278;SDS011;20538;51.528;9.942;2023-05-07T07:40:52;13.55;;;8.15;;
34278;SDS011;20538;51.528;9.942;2023-05-07T07:43:17;13.07;;;7.22;;
34278;SDS011;20538;51.528;9.942;2023-05-07T07:45:43;14.65;;;7.85;;
34278;SDS011;20538;51.528;9.942;2023-05-07T07:48:08;11.30;;;7.50;;
34278;SDS011;20538;51.528;9.942;2023-05-07T07:50:34;12.18;;;7.28;;
34278;SDS011;20538;51.528;9.942;2023-05-07T07:53:00;15.25;;;8.80;;
34278;SDS011;20538;51.528;9.942;2023-05-07T07:55:25;12.45;;;7.13;;
34278;SDS011;20538;51.528;9.942;2023-05-07T07:57:52;13.02;;;7.57;;
34278;SDS011;20538;51.528;9.942;2023-05-07T08:00:17;13.55;;;7.30;;
34278;SDS011;20538;51.528;9.942;2023-05-07T08:02:43;12.45;;;7.60;;
34278;SDS011;20538;51.528;9.942;2023-05-07T08:05:09;12.80;;;7.65;;
34278;SDS011;20538;51.528;9.942;2023-05-07T08:07:34;11.50;;;7.28;;
34278;SDS011;20538;51.528;9.942;2023-05-07T08:10:00;13.60;;;7.82;;
34278;SDS011;20538;51.528;9.942;2023-05-07T08:12:27;12.20;;;7.60;;
34278;SDS011;20538;51.528;9.942;2023-05-07T08:14:52;13.48;;;7.35;;
34278;SDS011;20538;51.528;9.942;2023-05-07T08:17:18;13.07;;;7.57;;
34278;SDS011;20538;51.528;9.942;2023-05-07T08:19:44;14.43;;;8.63;;
34278;SDS011;20538;51.528;9.942;2023-05-07T08:22:10;11.93;;;7.53;;
34278;SDS011;20538;51.528;9.942;2023-05-07T08:24:36;12.85;;;7.72;;
34278;SDS011;20538;51.528;9.942;2023-05-07T08:27:01;11.82;;;8.13;;
34278;SDS011;20538;51.528;9.942;2023-05-07T08:29:27;13.27;;;7.53;;
34278;SDS011;20538;51.528;9.942;2023-05-07T08:31:53;17.05;;;7.78;;
34278;SDS011;20538;51.528;9.942;2023-05-07T08:34:18;17.05;;;8.48;;
34278;SDS011;20538;51.528;9.942;2023-05-07T08:36:44;11.85;;;7.15;;
34278;SDS011;20538;51.528;9.942;2023-05-07T08:39:13;11.98;;;7.25;;
34278;SDS011;20538;51.528;9.942;2023-05-07T08:41:40;13.30;;;7.18;;
34278;SDS011;20538;51.528;9.942;2023-05-07T08:44:07;13.63;;;7.93;;
34278;SDS011;20538;51.528;9.942;2023-05-07T08:46:38;12.38;;;7.20;;
34278;SDS011;20538;51.528;9.942;2023-05-07T08:49:05;14.65;;;7.72;;
34278;SDS011;20538;51.528;9.942;2023-05-07T08:51:30;12.90;;;8.25;;
34278;SDS011;20538;51.528;9.942;2023-05-07T08:53:56;12.48;;;7.20;;
34278;SDS011;20538;51.528;9.942;2023-05-07T08:56:24;17.27;;;8.35;;
34278;SDS011;20538;51.528;9.942;2023-05-07T08:58:50;11.20;;;7.03;;
34278;SDS011;20538;51.528;9.942;2023-05-07T09:01:16;15.00;;;7.57;;
34278;SDS011;20538;51.528;9.942;2023-05-07T09:03:44;12.38;;;7.85;;
34278;SDS011;20538;51.528;9.942;2023-05-07T09:06:10;18.05;;;8.23;;
34278;SDS011;20538;51.528;9.942;2023-05-07T09:08:36;13.98;;;7.60;;
34278;SDS011;20538;51.528;9.942;2023-05-07T09:11:02;13.82;;;8.20;;
34278;SDS011;20538;51.528;9.942;2023-05-07T09:13:29;11.77;;;7.75;;
34278;SDS011;20538;51.528;9.942;2023-05-07T09:15:55;13.85;;;8.48;;
34278;SDS011;20538;51.528;9.942;2023-05-07T09:18:23;15.05;;;8.27;;
34278;SDS011;20538;51.528;9.942;2023-05-07T09:20:50;14.43;;;8.48;;
34278;SDS011;20538;51.528;9.942;2023-05-07T09:23:16;12.40;;;8.35;;
34278;SDS011;20538;51.528;9.942;2023-05-07T09:25:42;12.68;;;8.32;;
34278;SDS011;20538;51.528;9.942;2023-05-07T09:28:08;13.77;;;8.57;;
34278;SDS011;20538;51.528;9.942;2023-05-07T09:30:35;15.73;;;9.55;;
34278;SDS011;20538;51.528;9.942;2023-05-07T09:33:03;17.40;;;10.32;;
34278;SDS011;20538;51.528;9.942;2023-05-07T09:35:30;14.43;;;9.25;;
34278;SDS011;20538;51.528;9.942;2023-05-07T09:37:56;15.02;;;9.80;;
34278;SDS011;20538;51.528;9.942;2023-05-07T09:40:23;16.67;;;8.98;;
34278;SDS011;20538;51.528;9.942;2023-05-07T09:42:50;18.10;;;10.18;;
34278;SDS011;20538;51.528;9.942;2023-05-07T09:45:20;14.75;;;9.73;;
34278;SDS011;20538;51.528;9.942;2023-05-07T09:47:57;14.65;;;9.95;;
34278;SDS011;20538;51.528;9.942;2023-05-07T09:50:27;17.88;;;10.88;;
34278;SDS011;20538;51.528;9.942;2023-05-07T09:52:54;15.93;;;9.93;;
34278;SDS011;20538;51.528;9.942;2023-05-07T09:55:21;15.57;;;9.85;;
34278;SDS011;20538;51.528;9.942;2023-05-07T09:57:50;16.70;;;11.15;;
34278;SDS011;20538;51.528;9.942;2023-05-07T10:00:20;17.42;;;11.55;;
34278;SDS011;20538;51.528;9.942;2023-05-07T10:02:48;18.83;;;12.50;;
34278;SDS011;20538;51.528;9.942;2023-05-07T10:05:14;18.63;;;12.15;;
34278;SDS011;20538;51.528;9.942;2023-05-07T10:07:41;18.50;;;12.30;;
34278;SDS011;20538;51.528;9.942;2023-05-07T10:10:08;22.85;;;12.70;;
34278;SDS011;20538;51.528;9.942;2023-05-07T10:12:34;20.27;;;12.43;;
34278;SDS011;20538;51.528;9.942;2023-05-07T10:15:10;18.98;;;12.43;;
34278;SDS011;20538;51.528;9.942;2023-05-07T10:17:40;20.95;;;13.43;;
34278;SDS011;20538;51.528;9.942;2023-05-07T10:20:06;20.92;;;13.85;;
34278;SDS011;20538;51.528;9.942;2023-05-07T10:22:37;22.80;;;13.93;;
34278;SDS011;20538;51.528;9.942;2023-05-07T10:25:04;22.63;;;14.48;;
34278;SDS011;20538;51.528;9.942;2023-05-07T10:27:38;22.25;;;14.20;;
34278;SDS011;20538;51.528;9.942;2023-05-07T10:32:56;19.80;;;13.15;;
34278;SDS011;20538;51.528;9.942;2023-05-07T10:35:31;22.10;;;14.23;;
34278;SDS011;20538;51.528;9.942;2023-05-07T10:38:02;20.00;;;14.77;;
34278;SDS011;20538;51.528;9.942;2023-05-07T10:40:30;21.80;;;14.18;;
34278;SDS011;20538;51.528;9.942;2023-05-07T10:42:59;22.42;;;15.82;;
34278;SDS011;20538;51.528;9.942;2023-05-07T10:45:27;24.23;;;15.48;;
34278;SDS011;20538;51.528;9.942;2023-05-07T10:50:44;25.85;;;15.43;;
34278;SDS011;20538;51.528;9.942;2023-05-07T10:55:41;23.73;;;15.38;;
34278;SDS011;20538;51.528;9.942;2023-05-07T11:00:58;23.73;;;15.80;;
34278;SDS011;20538;51.528;9.942;2023-05-07T11:03:25;22.52;;;15.50;;
34278;SDS011;20538;51.528;9.942;2023-05-07T11:08:54;22.08;;;15.13;;
34278;SDS011;20538;51.528;9.942;2023-05-07T11:14:11;24.60;;;16.67;;
34278;SDS011;20538;51.528;9.942;2023-05-07T11:16:36;23.88;;;15.82;;
34278;SDS011;20538;51.528;9.942;2023-05-07T11:19:03;26.67;;;17.63;;
34278;SDS011;20538;51.528;9.942;2023-05-07T11:24:01;22.73;;;16.05;;
34278;SDS011;20538;51.528;9.942;2023-05-07T11:26:29;22.42;;;15.95;;
34278;SDS011;20538;51.528;9.942;2023-05-07T11:28:56;25.67;;;16.25;;
34278;SDS011;20538;51.528;9.942;2023-05-07T11:31:25;23.13;;;15.00;;
34278;SDS011;20538;51.528;9.942;2023-05-07T11:33:53;24.02;;;15.55;;
34278;SDS011;20538;51.528;9.942;2023-05-07T11:36:21;22.42;;;15.35;;
34278;SDS011;20538;51.528;9.942;2023-05-07T11:38:48;22.35;;;14.65;;
34278;SDS011;20538;51.528;9.942;2023-05-07T11:41:15;24.77;;;15.60;;
34278;SDS011;20538;51.528;9.942;2023-05-07T11:43:55;25.65;;;15.70;;
34278;SDS011;20538;51.528;9.942;2023-05-07T11:46:25;23.10;;;15.07;;
34278;SDS011;20538;51.528;9.942;2023-05-07T11:48:51;20.13;;;14.98;;
34278;SDS011;20538;51.528;9.942;2023-05-07T11:51:20;21.95;;;15.25;;
34278;SDS011;20538;51.528;9.942;2023-05-07T11:53:47;22.38;;;14.68;;
34278;SDS011;20538;51.528;9.942;2023-05-07T11:56:14;21.85;;;15.52;;
34278;SDS011;20538;51.528;9.942;2023-05-07T11:58:42;23.17;;;15.65;;
34278;SDS011;20538;51.528;9.942;2023-05-07T12:01:12;24.33;;;16.02;;
34278;SDS011;20538;51.528;9.942;2023-05-07T12:03:42;23.38;;;15.77;;
34278;SDS011;20538;51.528;9.942;2023-05-07T12:06:12;25.38;;;16.02;;
34278;SDS011;20538;51.528;9.942;2023-05-07T12:08:40;22.45;;;13.98;;
34278;SDS011;20538;51.528;9.942;2023-05-07T12:11:06;23.08;;;15.82;;
34278;SDS011;20538;51.528;9.942;2023-05-07T12:13:34;21.90;;;15.02;;
34278;SDS011;20538;51.528;9.942;2023-05-07T12:16:00;22.10;;;14.68;;
34278;SDS011;20538;51.528;9.942;2023-05-07T12:18:28;20.63;;;14.43;;
34278;SDS011;20538;51.528;9.942;2023-05-07T12:20:54;21.27;;;14.48;;
34278;SDS011;20538;51.528;9.942;2023-05-07T12:23:21;20.70;;;14.30;;
34278;SDS011;20538;51.528;9.942;2023-05-07T12:25:47;19.20;;;13.25;;
34278;SDS011;20538;51.528;9.942;2023-05-07T12:28:17;23.05;;;14.80;;
34278;SDS011;20538;51.528;9.942;2023-05-07T12:30:43;20.08;;;14.07;;
34278;SDS011;20538;51.528;9.942;2023-05-07T12:33:16;21.45;;;14.15;;
34278;SDS011;20538;51.528;9.942;2023-05-07T12:35:44;19.73;;;13.57;;
34278;SDS011;20538;51.528;9.942;2023-05-07T12:38:11;18.98;;;13.43;;
34278;SDS011;20538;51.528;9.942;2023-05-07T12:40:39;20.00;;;14.18;;
34278;SDS011;20538;51.528;9.942;2023-05-07T12:43:05;19.58;;;13.13;;
34278;SDS011;20538;51.528;9.942;2023-05-07T12:45:31;19.20;;;13.75;;
34278;SDS011;20538;51.528;9.942;2023-05-07T12:48:01;22.48;;;14.68;;
34278;SDS011;20538;51.528;9.942;2023-05-07T12:50:35;19.80;;;13.90;;
34278;SDS011;20538;51.528;9.942;2023-05-07T12:53:04;20.17;;;13.70;;
34278;SDS011;20538;51.528;9.942;2023-05-07T12:55:31;19.30;;;13.38;;
34278;SDS011;20538;51.528;9.942;2023-05-07T12:57:57;19.10;;;13.13;;
34278;SDS011;20538;51.528;9.942;2023-05-07T13:00:35;18.75;;;13.35;;
34278;SDS011;20538;51.528;9.942;2023-05-07T13:03:02;18.52;;;14.05;;
34278;SDS011;20538;51.528;9.942;2023-05-07T13:05:28;20.38;;;14.30;;
34278;SDS011;20538;51.528;9.942;2023-05-07T13:07:56;18.23;;;13.32;;
34278;SDS011;20538;51.528;9.942;2023-05-07T13:10:22;18.88;;;13.90;;
34278;SDS011;20538;51.528;9.942;2023-05-07T13:12:49;18.05;;;13.40;;
34278;SDS011;20538;51.528;9.942;2023-05-07T13:15:15;17.50;;;12.65;;
34278;SDS011;20538;51.528;9.942;2023-05-07T13:17:42;15.90;;;12.15;;
34278;SDS011;20538;51.528;9.942;2023-05-07T13:20:10;16.45;;;12.13;;
34278;SDS011;20538;51.528;9.942;2023-05-07T13:22:37;16.27;;;12.23;;
34278;SDS011;20538;51.528;9.942;2023-05-07T13:25:03;20.33;;;13.45;;
34278;SDS011;20538;51.528;9.942;2023-05-07T13:27:29;16.08;;;12.57;;
34278;SDS011;20538;51.528;9.942;2023-05-07T13:29:56;19.20;;;13.02;;
34278;SDS011;20538;51.528;9.942;2023-05-07T13:32:21;15.50;;;11.57;;
34278;SDS011;20538;51.528;9.942;2023-05-07T13:34:47;17.15;;;13.13;;
34278;SDS011;20538;51.528;9.942;2023-05-07T13:37:13;17.92;;;13.02;;
34278;SDS011;20538;51.528;9.942;2023-05-07T13:39:39;18.95;;;12.90;;
34278;SDS011;20538;51.528;9.942;2023-05-07T13:42:05;16.75;;;12.48;;
34278;SDS011;20538;51.528;9.942;2023-05-07T13:44:31;16.90;;;12.60;;
34278;SDS011;20538;51.528;9.942;2023-05-07T13:46:57;16.05;;;11.77;;
34278;SDS011;20538;51.528;9.942;2023-05-07T13:49:26;16.10;;;11.80;;
34278;SDS011;20538;51.528;9.942;2023-05-07T13:51:52;18.55;;;11.50;;
34278;SDS011;20538;51.528;9.942;2023-05-07T13:54:18;16.80;;;12.10;;
34278;SDS011;20538;51.528;9.942;2023-05-07T13:56:44;16.60;;;11.85;;
34278;SDS011;20538;51.528;9.942;2023-05-07T13:59:10;17.10;;;12.40;;
34278;SDS011;20538;51.528;9.942;2023-05-07T14:01:36;15.30;;;12.32;;
34278;SDS011;20538;51.528;9.942;2023-05-07T14:04:02;15.25;;;11.57;;
34278;SDS011;20538;51.528;9.942;2023-05-07T14:06:30;15.65;;;10.82;;
34278;SDS011;20538;51.528;9.942;2023-05-07T14:08:56;16.83;;;11.68;;
34278;SDS011;20538;51.528;9.942;2023-05-07T14:11:23;18.38;;;11.88;;
34278;SDS011;20538;51.528;9.942;2023-05-07T14:13:48;17.27;;;10.98;;
34278;SDS011;20538;51.528;9.942;2023-05-07T14:16:14;17.25;;;11.90;;
34278;SDS011;20538;51.528;9.942;2023-05-07T14:18:40;15.13;;;10.90;;
34278;SDS011;20538;51.528;9.942;2023-05-07T14:21:05;16.77;;;11.77;;
34278;SDS011;20538;51.528;9.942;2023-05-07T14:23:32;16.35;;;11.77;;
34278;SDS011;20538;51.528;9.942;2023-05-07T14:25:57;15.95;;;11.98;;
34278;SDS011;20538;51.528;9.942;2023-05-07T14:28:23;15.75;;;11.48;;
34278;SDS011;20538;51.528;9.942;2023-05-07T14:30:52;16.83;;;11.88;;
34278;SDS011;20538;51.528;9.942;2023-05-07T14:33:17;15.88;;;12.18;;
34278;SDS011;20538;51.528;9.942;2023-05-07T14:35:43;15.23;;;11.77;;
34278;SDS011;20538;51.528;9.942;2023-05-07T14:38:13;15.13;;;10.98;;